Time;durP1;ratioP1;P1;durP2;ratioP2;P2;SDS_P1;SDS_P2;PMS_P1;PMS_P2;Temp;Humidity;BMP_temperature;BMP_pressure;BME280_temperature;BME280_humidity;BME280_pressure;Samples;Min_cycle;Max_cycle;Signal;HPM_P1;HPM_P2
2023/04/08 00:02:13;;;;;;;23.57;11.77;;;;;;;4.67;100.00;101851.41;5022639;23;20048;-80
2023/04/08 00:04:38;;;;;;;22.90;13.23;;;;;;;4.72;100.00;101851.97;5046798;23;20077;-74
2023/04/08 00:07:04;;;;;;;26.03;13.10;;;;;;;4.77;100.00;101862.25;5014416;28;20422;-74
2023/04/08 00:09:30;;;;;;;23.63;13.90;;;;;;;4.78;100.00;101853.38;5006289;28;20037;-72
2023/04/08 00:11:56;;;;;;;28.13;13.70;;;;;;;4.87;100.00;101866.03;5006800;28;20049;-71
2023/04/08 00:14:21;;;;;;;22.25;12.52;;;;;;;4.86;100.00;101859.03;5021984;28;20184;-72
2023/04/08 00:16:46;;;;;;;26.02;12.65;;;;;;;4.81;100.00;101848.72;5011255;28;20034;-71
2023/04/08 00:19:12;;;;;;;25.23;13.40;;;;;;;4.72;100.00;101843.19;5006433;28;20072;-73
2023/04/08 00:21:37;;;;;;;24.17;12.40;;;;;;;4.69;100.00;101859.25;5006628;28;20064;-71
2023/04/08 00:24:03;;;;;;;22.03;12.27;;;;;;;4.71;100.00;101863.50;5006469;28;20040;-71
2023/04/08 00:26:28;;;;;;;23.55;12.93;;;;;;;4.74;100.00;101862.44;5021656;28;20053;-72
2023/04/08 00:28:53;;;;;;;26.97;12.70;;;;;;;4.68;100.00;101861.03;5005738;28;20121;-73
2023/04/08 00:31:19;;;;;;;26.27;13.90;;;;;;;4.78;100.00;101869.25;4994872;28;20040;-74
2023/04/08 00:33:44;;;;;;;24.88;12.75;;;;;;;4.67;100.00;101861.16;5013866;28;20497;-72
2023/04/08 00:36:10;;;;;;;34.30;13.47;;;;;;;4.73;100.00;101871.31;5021610;28;20026;-72
2023/04/08 00:38:35;;;;;;;34.70;15.45;;;;;;;4.76;100.00;101879.09;5004629;28;20735;-72
2023/04/08 00:41:01;;;;;;;24.27;13.37;;;;;;;4.75;100.00;101880.00;5021629;28;20038;-71
2023/04/08 00:43:26;;;;;;;31.70;13.30;;;;;;;4.82;100.00;101883.97;5021491;28;20034;-73
2023/04/08 00:45:51;;;;;;;25.73;14.30;;;;;;;4.84;100.00;101890.84;5013853;28;20044;-72
2023/04/08 00:48:17;;;;;;;25.93;13.90;;;;;;;4.85;100.00;101897.03;5020754;28;20288;-73
2023/04/08 00:50:43;;;;;;;26.38;14.00;;;;;;;4.75;100.00;101891.47;5005931;28;20112;-72
2023/04/08 00:53:08;;;;;;;25.80;14.30;;;;;;;4.67;100.00;101887.59;5021403;28;20230;-71
2023/04/08 00:55:34;;;;;;;23.48;13.82;;;;;;;4.79;100.00;101906.19;5021092;28;20033;-74
2023/04/08 00:58:00;;;;;;;26.10;14.35;;;;;;;4.73;100.00;101903.06;5006366;28;20041;-72
2023/04/08 01:00:28;;;;;;;28.30;15.48;;;;;;;4.43;100.00;101891.66;5020830;28;20029;-72
2023/04/08 01:03:08;;;;;;;30.30;15.82;;;;;;;4.41;100.00;101914.72;5021063;28;20065;-71
2023/04/08 01:05:52;;;;;;;33.83;16.90;;;;;;;4.44;100.00;101935.66;5005723;28;20538;-72
2023/04/08 01:08:18;;;;;;;35.80;18.92;;;;;;;4.36;100.00;101932.66;5003214;28;20470;-72
2023/04/08 01:10:48;;;;;;;34.13;16.63;;;;;;;4.47;100.00;101945.19;5005663;28;20049;-74
2023/04/08 01:13:17;;;;;;;36.47;17.88;;;;;;;4.49;100.00;101947.75;5004238;28;20085;-72
2023/04/08 01:15:44;;;;;;;37.25;18.33;;;;;;;4.33;100.00;101948.72;5003249;28;20029;-69
2023/04/08 01:18:13;;;;;;;35.80;17.67;;;;;;;4.46;100.00;101955.91;5020667;28;20026;-70
2023/04/08 01:20:41;;;;;;;35.70;18.35;;;;;;;4.36;100.00;101952.97;5020535;28;20038;-72
2023/04/08 01:23:32;;;;;;;33.25;17.17;;;;;;;4.46;100.00;101971.75;5005920;28;20030;-69
2023/04/08 01:25:57;;;;;;;38.88;17.08;;;;;;;4.44;100.00;101969.19;5005220;28;20034;-69
2023/04/08 01:28:25;;;;;;;33.20;17.33;;;;;;;4.36;100.00;101963.53;5005113;28;20542;-69
2023/04/08 01:30:54;;;;;;;30.00;16.88;;;;;;;4.49;100.00;101959.19;5010223;28;20030;-69
2023/04/08 01:33:21;;;;;;;31.27;16.02;;;;;;;4.44;100.00;101953.34;5004251;28;20034;-70
2023/04/08 01:35:47;;;;;;;30.85;18.10;;;;;;;4.46;100.00;101953.25;5020135;28;20069;-70
2023/04/08 01:38:17;;;;;;;36.63;16.85;;;;;;;4.43;100.00;101946.34;5020380;28;20462;-70
2023/04/08 01:40:44;;;;;;;29.23;17.02;;;;;;;4.39;100.00;101950.13;5002825;28;20029;-70
2023/04/08 01:43:13;;;;;;;32.00;19.08;;;;;;;4.46;100.00;101954.09;5020566;28;20475;-70
2023/04/08 01:45:44;;;;;;;40.53;18.35;;;;;;;4.30;100.00;101951.53;5020527;28;20574;-72
2023/04/08 01:48:12;;;;;;;37.45;17.90;;;;;;;4.43;100.00;101949.00;5002826;28;20025;-71
2023/04/08 01:50:40;;;;;;;30.48;16.17;;;;;;;4.40;100.00;101943.88;5004810;28;20384;-70
2023/04/08 01:53:08;;;;;;;35.70;16.63;;;;;;;4.37;100.00;101939.63;5003810;28;20033;-70
2023/04/08 01:55:34;;;;;;;35.05;15.73;;;;;;;4.33;100.00;101937.25;5003941;28;20033;-72
2023/04/08 01:58:00;;;;;;;28.73;13.02;;;;;;;4.23;100.00;101931.69;5004591;28;20541;-69
2023/04/08 02:00:28;;;;;;;25.30;13.20;;;;;;;4.31;100.00;101924.16;5019399;28;20044;-69
2023/04/08 02:02:55;;;;;;;32.28;16.23;;;;;;;4.31;100.00;101920.63;5004721;28;20042;-71
2023/04/08 02:05:21;;;;;;;25.70;14.52;;;;;;;4.30;100.00;101918.94;5004874;28;20026;-72
2023/04/08 02:07:47;;;;;;;26.73;14.90;;;;;;;4.34;100.00;101928.41;5009503;28;20026;-69
2023/04/08 02:10:14;;;;;;;32.97;15.75;;;;;;;4.31;100.00;101918.88;5008619;28;20538;-70
2023/04/08 02:12:40;;;;;;;31.50;16.58;;;;;;;4.35;100.00;101930.09;5012374;28;20083;-70
2023/04/08 02:15:09;;;;;;;29.52;15.70;;;;;;;4.41;100.00;101929.72;5000574;28;20566;-72
2023/04/08 02:17:39;;;;;;;;;;;;;;;4.39;100.00;101931.63;5005350;28;20493;-69
2023/04/08 02:20:08;;;;;;;37.58;17.23;;;;;;;4.29;100.00;101918.09;5019376;28;20419;-70
2023/04/08 02:22:38;;;;;;;36.72;19.02;;;;;;;4.32;100.00;101923.19;5003598;28;20025;-72
2023/04/08 02:25:09;;;;;;;36.92;16.20;;;;;;;4.25;100.00;101913.09;5004403;28;20764;-72
2023/04/08 02:27:38;;;;;;;32.95;15.48;;;;;;;4.24;100.00;101917.53;5019448;28;20108;-71
2023/04/08 02:30:05;;;;;;;36.58;17.30;;;;;;;4.26;100.00;101920.94;5002585;28;20026;-73
2023/04/08 02:32:32;;;;;;;30.67;14.57;;;;;;;4.13;100.00;101922.63;5004531;28;20029;-69
2023/04/08 02:35:00;;;;;;;34.50;15.98;;;;;;;3.95;100.00;101916.63;5009202;28;20038;-70
2023/04/08 02:37:27;;;;;;;28.98;14.90;;;;;;;4.06;100.00;101932.69;5019665;28;20402;-71
2023/04/08 02:39:52;;;;;;;40.42;16.77;;;;;;;4.04;100.00;101936.38;5019029;28;20057;-70
2023/04/08 02:42:18;;;;;;;29.30;14.27;;;;;;;4.13;100.00;101941.13;5019589;28;20033;-72
2023/04/08 02:44:43;;;;;;;31.65;15.50;;;;;;;4.01;100.00;101930.34;5019510;28;20287;-73
2023/04/08 02:47:09;;;;;;;30.50;14.30;;;;;;;4.02;100.00;101939.09;5019692;28;20458;-72
2023/04/08 02:49:34;;;;;;;33.07;16.63;;;;;;;4.04;100.00;101944.31;5019266;28;20084;-71
2023/04/08 02:51:59;;;;;;;27.40;13.80;;;;;;;4.01;100.00;101948.00;5007699;28;20030;-69
2023/04/08 02:54:25;;;;;;;30.10;14.70;;;;;;;4.06;100.00;101951.19;5019346;28;20414;-69
2023/04/08 02:56:50;;;;;;;27.23;14.63;;;;;;;4.07;100.00;101952.88;5019391;28;20033;-71
2023/04/08 02:59:15;;;;;;;33.87;15.63;;;;;;;4.08;100.00;101951.97;5007312;28;20108;-70
2023/04/08 03:01:41;;;;;;;39.30;18.40;;;;;;;4.06;100.00;101948.56;5004373;28;20046;-70
2023/04/08 03:04:07;;;;;;;39.60;18.13;;;;;;;4.12;100.00;101952.63;4999890;28;20026;-69
2023/04/08 03:06:32;;;;;;;35.50;17.02;;;;;;;4.11;100.00;101949.13;5019602;28;20258;-71
2023/04/08 03:08:58;;;;;;;37.63;18.53;;;;;;;4.15;100.00;101955.09;5004181;28;20642;-70
2023/04/08 03:11:23;;;;;;;34.90;16.80;;;;;;;4.14;100.00;101953.38;5023018;28;20061;-70
2023/04/08 03:13:48;;;;;;;37.13;18.03;;;;;;;4.03;100.00;101946.09;5008513;28;20038;-71
2023/04/08 03:16:14;;;;;;;36.40;16.87;;;;;;;4.08;100.00;101953.75;5008054;28;20220;-71
2023/04/08 03:18:39;;;;;;;37.28;19.15;;;;;;;4.04;100.00;101954.88;5007580;28;20395;-71
2023/04/08 03:21:05;;;;;;;32.63;17.70;;;;;;;4.06;100.00;101961.78;5007787;28;20030;-70
2023/04/08 03:23:30;;;;;;;39.53;18.60;;;;;;;4.03;100.00;101959.31;5007890;28;20479;-71
2023/04/08 03:25:56;;;;;;;35.37;17.80;;;;;;;4.06;100.00;101963.56;5007818;28;20100;-69
2023/04/08 03:28:21;;;;;;;50.37;19.20;;;;;;;4.09;100.00;101966.88;5005229;28;20041;-70
2023/04/08 03:30:46;;;;;;;36.43;17.90;;;;;;;4.05;100.00;101961.84;5004940;28;20538;-69
2023/04/08 03:33:12;;;;;;;40.07;20.00;;;;;;;4.02;100.00;101961.09;5022678;28;20384;-69
2023/04/08 03:35:37;;;;;;;47.87;20.20;;;;;;;3.99;100.00;101968.38;5010285;28;20030;-71
2023/04/08 03:38:03;;;;;;;42.10;19.70;;;;;;;4.00;100.00;101968.28;5022324;28;20532;-70
2023/04/08 03:40:28;;;;;;;42.75;19.30;;;;;;;4.05;100.00;101977.72;5005879;28;20610;-72
2023/04/08 03:42:54;;;;;;;49.57;20.00;;;;;;;4.04;100.00;101979.50;5022665;28;20060;-71
2023/04/08 03:45:19;;;;;;;42.60;20.20;;;;;;;3.95;100.00;101977.41;5022566;28;20042;-71
2023/04/08 03:47:44;;;;;;;37.70;18.97;;;;;;;4.05;100.00;101975.06;5022216;28;20033;-70
2023/04/08 03:50:10;;;;;;;37.97;18.10;;;;;;;3.97;100.00;101963.16;5006926;28;20033;-70
2023/04/08 03:52:35;;;;;;;39.15;18.05;;;;;;;3.88;100.00;101962.84;5007123;28;20394;-70
2023/04/08 03:55:01;;;;;;;38.70;19.60;;;;;;;3.92;100.00;101977.59;5022412;28;20042;-69
2023/04/08 03:57:26;;;;;;;50.83;19.37;;;;;;;3.98;100.00;101978.09;5007667;28;20061;-70
2023/04/08 03:59:51;;;;;;;48.87;20.27;;;;;;;3.93;100.00;101982.78;5006593;28;20057;-71
2023/04/08 04:02:17;;;;;;;44.88;20.27;;;;;;;3.94;100.00;101983.63;5006918;28;20061;-69
2023/04/08 04:04:42;;;;;;;48.30;21.15;;;;;;;3.91;100.00;101984.66;5006462;28;20545;-71
2023/04/08 04:07:08;;;;;;;52.27;23.33;;;;;;;3.86;100.00;101985.84;5022452;28;20025;-69
2023/04/08 04:09:33;;;;;;;45.43;21.20;;;;;;;3.87;100.00;101991.06;5006630;28;20502;-71
2023/04/08 04:11:59;;;;;;;38.83;20.25;;;;;;;3.93;100.00;101997.78;4992327;28;20052;-70
2023/04/08 04:14:24;;;;;;;44.63;20.77;;;;;;;3.88;100.00;101995.41;5006759;28;20448;-70
2023/04/08 04:16:50;;;;;;;39.60;18.38;;;;;;;3.87;100.00;102006.06;5006436;28;20030;-70
2023/04/08 04:19:17;;;;;;;41.07;20.17;;;;;;;3.91;100.00;102002.28;5009397;28;20069;-69
2023/04/08 04:21:42;;;;;;;47.28;21.50;;;;;;;3.68;100.00;102015.03;5021466;28;20465;-71
2023/04/08 04:24:08;;;;;;;61.55;19.90;;;;;;;3.61;100.00;102008.41;5021912;28;20038;-69
2023/04/08 04:26:33;;;;;;;34.70;16.13;;;;;;;3.67;100.00;102008.03;5007173;28;20036;-71
2023/04/08 04:28:58;;;;;;;37.97;17.23;;;;;;;3.64;100.00;102010.88;5021254;28;20284;-71
2023/04/08 04:31:28;;;;;;;37.85;17.77;;;;;;;3.61;100.00;102016.34;5006164;28;20025;-70
2023/04/08 04:33:53;;;;;;;38.50;17.77;;;;;;;3.67;100.00;102015.97;5006238;28;20053;-72
2023/04/08 04:36:19;;;;;;;35.08;18.35;;;;;;;3.65;100.00;102017.00;5005878;28;20157;-70
2023/04/08 04:38:44;;;;;;;42.30;19.48;;;;;;;3.69;100.00;102021.16;5006117;28;20064;-70
2023/04/08 04:41:10;;;;;;;44.03;19.88;;;;;;;3.75;100.00;102026.97;5005309;28;20394;-70
2023/04/08 04:43:36;;;;;;;39.15;19.60;;;;;;;3.80;100.00;102018.78;5004942;28;20076;-69
2023/04/08 04:46:05;;;;;;;43.15;20.27;;;;;;;3.78;100.00;102020.66;5020205;28;20109;-70
2023/04/08 04:48:31;;;;;;;46.83;21.88;;;;;;;3.79;100.00;102017.94;5005806;28;20033;-71
2023/04/08 04:50:58;;;;;;;45.15;19.65;;;;;;;3.78;100.00;102021.50;5006069;28;20117;-69
2023/04/08 04:53:24;;;;;;;41.58;19.85;;;;;;;3.80;100.00;102024.91;5006548;28;20454;-72
2023/04/08 04:55:50;;;;;;;52.28;22.67;;;;;;;3.88;100.00;102034.19;5005993;28;20139;-70
2023/04/08 04:58:15;;;;;;;;;;;;;;;3.84;100.00;102030.00;5006080;28;20045;-70
2023/04/08 05:00:41;;;;;;;46.05;20.65;;;;;;;3.90;100.00;102040.22;5020792;28;20456;-70
2023/04/08 05:03:06;;;;;;;46.13;20.17;;;;;;;3.74;100.00;102029.69;5021764;28;20033;-70
2023/04/08 05:05:32;;;;;;;47.33;19.42;;;;;;;3.74;100.00;102030.53;5006234;28;20319;-70
2023/04/08 05:07:57;;;;;;;52.50;20.73;;;;;;;3.77;100.00;102037.47;5006820;28;20156;-69
2023/04/08 05:10:22;;;;;;;37.73;20.27;;;;;;;3.81;100.00;102044.25;5006142;28;20319;-70
2023/04/08 05:12:48;;;;;;;42.27;21.27;;;;;;;3.83;100.00;102041.53;5006807;28;20044;-70
2023/04/08 05:15:13;;;;;;;45.07;18.00;;;;;;;3.70;100.00;102044.88;5006489;28;20045;-71
2023/04/08 05:17:39;;;;;;;42.20;19.63;;;;;;;3.80;100.00;102043.41;5006293;28;20044;-71
2023/04/08 05:20:05;;;;;;;44.40;20.02;;;;;;;3.77;100.00;102051.50;5006067;28;20277;-70
2023/04/08 05:22:30;;;;;;;44.35;19.75;;;;;;;3.85;100.00;102047.59;5006319;28;20030;-71
2023/04/08 05:24:56;;;;;;;49.33;20.83;;;;;;;3.89;100.00;102043.84;5006209;28;20037;-70
2023/04/08 05:27:21;;;;;;;40.43;20.23;;;;;;;3.89;100.00;102051.75;5006462;28;20030;-70
2023/04/08 05:29:47;;;;;;;41.10;19.53;;;;;;;3.91;100.00;102049.84;5005577;28;20352;-70
2023/04/08 05:32:12;;;;;;;42.47;20.50;;;;;;;3.87;100.00;102035.13;5006258;28;20280;-70
2023/04/08 05:34:37;;;;;;;41.63;20.43;;;;;;;3.95;100.00;102039.03;5020642;28;20034;-69
2023/04/08 05:37:03;;;;;;;43.23;19.27;;;;;;;3.93;100.00;102037.41;5006110;28;20143;-72
2023/04/08 05:39:28;;;;;;;37.53;18.30;;;;;;;3.82;100.00;102027.47;5020763;28;20111;-69
2023/04/08 05:41:53;;;;;;;41.23;19.40;;;;;;;3.65;100.00;102028.41;5005417;28;20120;-72
2023/04/08 05:44:19;;;;;;;44.95;20.30;;;;;;;3.51;100.00;102028.31;5005744;28;20101;-70
2023/04/08 05:46:44;;;;;;;47.03;21.50;;;;;;;3.33;100.00;102033.69;5004732;28;20760;-69
2023/04/08 05:49:10;;;;;;;41.78;20.38;;;;;;;3.54;100.00;102058.06;5005500;28;20454;-69
2023/04/08 05:51:36;;;;;;;;;;;;;;;3.59;100.00;102074.50;5021494;28;20487;-73
2023/04/08 05:54:01;;;;;;;40.50;20.52;;;;;;;3.75;100.00;102073.66;5005975;28;19928;-70
2023/04/08 05:56:26;;;;;;;44.40;21.10;;;;;;;3.85;100.00;102068.72;5021048;28;20515;-69
2023/04/08 05:58:52;;;;;;;46.20;19.67;;;;;;;3.92;100.00;102070.91;5020727;28;20406;-70
2023/04/08 06:01:17;;;;;;;51.20;21.60;;;;;;;3.93;100.00;102072.63;5005878;28;20570;-70
2023/04/08 06:03:42;;;;;;;45.33;17.90;;;;;;;3.97;100.00;102066.22;5005315;28;20781;-70
2023/04/08 06:06:11;;;;;;;41.00;19.73;;;;;;;4.02;100.00;102068.59;5027721;23;20920;-72
2023/04/08 06:08:36;;;;;;;48.47;20.95;;;;;;;4.06;100.00;102071.94;4987405;28;20049;-72
2023/04/08 06:11:04;;;;;;;51.00;20.05;;;;;;;4.09;100.00;102077.88;5011823;28;20053;-72
2023/04/08 06:13:29;;;;;;;41.85;20.95;;;;;;;4.01;100.00;102077.47;5020854;28;20057;-72
2023/04/08 06:15:55;;;;;;;40.53;19.90;;;;;;;4.15;100.00;102082.81;5014171;28;20483;-72
2023/04/08 06:18:20;;;;;;;35.47;18.33;;;;;;;4.17;100.00;102070.38;5005481;28;20034;-72
2023/04/08 06:20:45;;;;;;;39.43;18.20;;;;;;;4.19;100.00;102065.84;5004719;28;20033;-71
2023/04/08 06:23:11;;;;;;;42.30;19.93;;;;;;;4.26;100.00;102063.72;5021263;28;20077;-71
2023/04/08 06:25:37;;;;;;;38.83;17.75;;;;;;;3.96;100.00;102050.47;5016246;28;20327;-72
2023/04/08 06:28:02;;;;;;;39.60;18.43;;;;;;;4.06;100.00;102058.72;5005101;28;20910;-72
2023/04/08 06:30:28;;;;;;;34.92;17.65;;;;;;;3.86;100.00;102062.47;5005544;28;20079;-73
2023/04/08 06:32:53;;;;;;;32.22;16.15;;;;;;;3.76;100.00;102057.72;5020721;28;20661;-73
2023/04/08 06:35:18;;;;;;;36.77;17.33;;;;;;;4.09;100.00;102071.75;5005359;28;20030;-73
2023/04/08 06:37:44;;;;;;;31.67;15.53;;;;;;;4.06;100.00;102071.94;5020682;28;20042;-74
2023/04/08 06:40:10;;;;;;;34.40;15.50;;;;;;;4.05;100.00;102071.09;5003262;28;20030;-74
2023/04/08 06:42:37;;;;;;;32.35;17.08;;;;;;;3.72;100.00;102053.56;4989730;28;20056;-73
2023/04/08 06:45:17;;;;;;;29.73;15.73;;;;;;;3.90;100.00;102066.66;4976164;28;20080;-73
2023/04/08 06:47:43;;;;;;;32.07;14.70;;;;;;;3.99;100.00;102077.56;5020346;28;20038;-73
2023/04/08 06:50:09;;;;;;;32.70;15.50;;;;;;;4.14;100.00;102077.59;5008737;28;20040;-74
2023/04/08 06:52:34;;;;;;;34.95;14.52;;;;;;;4.02;100.00;102077.38;5024544;28;20048;-73
2023/04/08 06:54:59;;;;;;;32.10;15.00;;;;;;;4.05;100.00;102080.78;5024217;28;20490;-73
2023/04/08 06:57:25;;;;;;;22.33;13.43;;;;;;;4.19;100.00;102084.34;5020689;28;20054;-74
2023/04/08 06:59:52;;;;;;;34.28;15.30;;;;;;;4.34;100.00;102092.34;5008725;28;20654;-73
2023/04/08 07:02:18;;;;;;;31.00;15.75;;;;;;;4.41;100.00;102086.59;4998549;28;20488;-73
2023/04/08 07:04:43;;;;;;;28.05;13.90;;;;;;;4.46;100.00;102085.47;4991098;28;20038;-73
2023/04/08 07:07:08;;;;;;;30.00;14.30;;;;;;;4.65;100.00;102086.09;5004891;28;20028;-71
2023/04/08 07:09:35;;;;;;;27.00;14.80;;;;;;;4.79;100.00;102095.84;5008368;28;20525;-73
2023/04/08 07:12:02;;;;;;;26.15;13.63;;;;;;;4.84;100.00;102084.03;5008498;28;20120;-73
2023/04/08 07:14:28;;;;;;;25.08;13.50;;;;;;;4.88;100.00;102076.78;5008527;28;20065;-73
2023/04/08 07:16:55;;;;;;;25.40;12.70;;;;;;;4.65;100.00;102065.75;5010916;28;20042;-71
2023/04/08 07:19:21;;;;;;;;;;;;;;;4.38;100.00;102051.56;5008143;28;20080;-74
2023/04/08 07:21:47;;;;;;;27.88;13.77;;;;;;;4.29;100.00;102057.38;4988901;28;19913;-72
2023/04/08 07:24:12;;;;;;;27.25;13.27;;;;;;;4.18;100.00;102065.94;5007340;28;20036;-71
2023/04/08 07:26:38;;;;;;;31.15;13.65;;;;;;;4.47;100.00;102090.66;5010375;28;20049;-72
2023/04/08 07:29:03;;;;;;;22.58;11.82;;;;;;;4.62;100.00;102096.84;5005920;28;20407;-72
2023/04/08 07:31:28;;;;;;;24.97;12.77;;;;;;;4.87;100.00;102106.84;5006741;28;20119;-72
2023/04/08 07:33:54;;;;;;;22.10;11.60;;;;;;;5.01;100.00;102103.34;4991387;28;20037;-72
2023/04/08 07:36:19;;;;;;;21.27;12.03;;;;;;;5.01;100.00;102096.25;4992211;28;20037;-72
2023/04/08 07:38:45;;;;;;;23.92;11.30;;;;;;;4.95;100.00;102088.69;5010227;28;20285;-72
2023/04/08 07:41:10;;;;;;;22.27;10.65;;;;;;;4.82;100.00;102078.00;5010646;28;20128;-72
2023/04/08 07:43:36;;;;;;;17.83;10.60;;;;;;;4.96;100.00;102079.78;5007441;28;20111;-71
2023/04/08 07:46:05;;;;;;;24.10;10.27;;;;;;;5.04;100.00;102080.19;5006174;28;20299;-72
2023/04/08 07:48:32;;;;;;;19.05;11.35;;;;;;;4.75;100.00;102059.94;5013763;28;20044;-72
2023/04/08 07:51:01;;;;;;;18.58;10.85;;;;;;;4.85;100.00;102072.53;5007379;28;20034;-72
2023/04/08 07:53:27;;;;;;;21.23;11.02;;;;;;;4.97;100.00;102068.28;5007442;28;20038;-72
2023/04/08 07:55:52;;;;;;;22.40;11.32;;;;;;;5.05;100.00;102078.38;5006229;28;20045;-72
2023/04/08 07:58:18;;;;;;;15.70;10.03;;;;;;;5.06;100.00;102073.00;5008065;28;20084;-74
2023/04/08 08:00:43;;;;;;;21.90;10.37;;;;;;;4.90;100.00;102072.25;5005761;28;20470;-72
2023/04/08 08:03:08;;;;;;;27.20;11.60;;;;;;;4.99;100.00;102078.78;5007615;28;20466;-72
2023/04/08 08:05:35;;;;;;;17.43;9.90;;;;;;;5.02;100.00;102081.22;5007079;28;20426;-71
2023/04/08 08:08:01;;;;;;;19.60;10.90;;;;;;;4.91;100.00;102070.44;5007281;28;20038;-72
2023/04/08 08:10:26;;;;;;;21.73;11.90;;;;;;;5.03;100.00;102086.44;5011983;28;20021;-71
2023/04/08 08:12:52;;;;;;;21.67;11.43;;;;;;;5.02;100.00;102079.44;5007158;28;20038;-71
2023/04/08 08:15:17;;;;;;;20.67;9.83;;;;;;;5.11;100.00;102085.13;5014831;28;20293;-72
2023/04/08 08:17:42;;;;;;;19.27;10.60;;;;;;;5.15;100.00;102071.59;5010170;28;20100;-72
2023/04/08 08:20:09;;;;;;;16.77;9.67;;;;;;;4.92;100.00;102067.72;5006909;28;20125;-72
2023/04/08 08:22:34;;;;;;;22.77;10.65;;;;;;;5.02;100.00;102078.59;5005034;28;20073;-72
2023/04/08 08:24:59;;;;;;;18.53;10.60;;;;;;;5.11;100.00;102090.41;5012881;28;20433;-72
2023/04/08 08:27:25;;;;;;;25.43;11.80;;;;;;;5.15;100.00;102095.44;5008174;28;20037;-71
2023/04/08 08:29:51;;;;;;;20.47;9.97;;;;;;;5.36;100.00;102095.91;5005823;28;20096;-71
2023/04/08 08:32:17;;;;;;;20.50;10.48;;;;;;;5.31;100.00;102089.16;5006773;28;20061;-72
2023/04/08 08:34:43;;;;;;;23.27;10.40;;;;;;;5.36;100.00;102082.66;5009791;28;20026;-72
2023/04/08 08:37:08;;;;;;;18.38;9.02;;;;;;;5.54;100.00;102091.22;5010033;28;20040;-72
2023/04/08 08:39:34;;;;;;;19.87;10.87;;;;;;;5.55;100.00;102071.75;5006011;28;20065;-72
2023/04/08 08:41:59;;;;;;;16.10;9.40;;;;;;;5.64;100.00;102079.09;5005288;28;20438;-72
2023/04/08 08:44:25;;;;;;;14.33;8.47;;;;;;;5.85;100.00;102066.28;5006140;28;20371;-72
2023/04/08 08:46:51;;;;;;;14.93;7.97;;;;;;;5.75;100.00;102043.09;4997869;28;20474;-71
2023/04/08 08:49:17;;;;;;;12.45;8.52;;;;;;;5.76;100.00;102029.78;4996009;28;20036;-72
2023/04/08 08:51:45;;;;;;;18.07;8.97;;;;;;;5.66;100.00;102029.50;5009547;28;20489;-72
2023/04/08 08:54:10;;;;;;;16.65;9.85;;;;;;;5.72;100.00;102038.84;5006301;28;20104;-72
2023/04/08 08:56:36;;;;;;;18.20;9.37;;;;;;;5.77;100.00;102039.41;5005112;28;20070;-72
2023/04/08 08:59:01;;;;;;;19.30;10.17;;;;;;;5.79;100.00;102029.56;5008789;28;20041;-72
2023/04/08 09:01:39;;;;;;;18.88;10.10;;;;;;;5.90;100.00;102024.41;5006113;28;20033;-72
2023/04/08 09:04:23;;;;;;;17.80;10.15;;;;;;;6.07;100.00;102011.88;5004515;28;20148;-72
2023/04/08 09:07:03;;;;;;;16.95;9.57;;;;;;;6.29;100.00;102014.75;5004290;28;20108;-72
2023/04/08 09:09:50;;;;;;;15.90;8.45;;;;;;;6.41;100.00;101999.81;5013177;28;20064;-72
2023/04/08 09:12:15;;;;;;;20.80;9.32;;;;;;;6.33;100.00;101984.44;5003182;28;20033;-72
2023/04/08 09:14:41;;;;;;;18.17;10.10;;;;;;;6.16;100.00;101965.31;5005935;28;20021;-72
2023/04/08 09:17:06;;;;;;;22.08;9.57;;;;;;;5.72;100.00;101964.66;5005619;28;20044;-72
2023/04/08 09:19:32;;;;;;;19.87;10.10;;;;;;;6.01;100.00;102013.13;5005283;28;20037;-72
2023/04/08 09:22:09;;;;;;;18.33;10.10;;;;;;;5.62;100.00;101988.28;5005576;28;20902;-72
2023/04/08 09:24:36;;;;;;;19.63;11.65;;;;;;;5.49;100.00;102030.59;4991518;28;20031;-72
2023/04/08 09:27:04;;;;;;;19.13;10.15;;;;;;;5.32;100.00;102036.13;5005571;28;20544;-71
2023/04/08 09:29:30;;;;;;;23.90;11.85;;;;;;;5.16;100.00;102043.31;4988435;28;20502;-71
2023/04/08 09:31:57;;;;;;;19.35;11.20;;;;;;;5.43;100.00;102098.97;5003821;28;20098;-72
2023/04/08 09:34:24;;;;;;;21.77;11.60;;;;;;;5.16;100.00;102075.09;4985308;28;20497;-72
2023/04/08 09:36:50;;;;;;;19.15;9.80;;;;;;;5.20;100.00;102117.16;5003574;28;20548;-72
2023/04/08 09:39:16;;;;;;;;;;;;;;;5.05;100.00;102108.34;5003929;28;20053;-71
2023/04/08 09:41:42;;;;;;;18.67;10.93;;;;;;;5.33;100.00;102138.44;5005427;28;19913;-72
2023/04/08 09:44:09;;;;;;;19.63;11.27;;;;;;;5.46;100.00;102163.22;4983438;28;20614;-72
2023/04/08 09:46:50;;;;;;;21.20;10.20;;;;;;;5.47;100.00;102142.88;4995939;28;20057;-72
2023/04/08 09:49:33;;;;;;;20.73;10.98;;;;;;;5.48;100.00;102140.16;5001823;28;20065;-72
2023/04/08 09:52:14;;;;;;;28.35;13.38;;;;;;;5.21;100.00;102112.72;4986926;28;20046;-72
2023/04/08 09:54:48;;;;;;;26.83;12.80;;;;;;;5.05;100.00;102126.88;4996271;28;20136;-71
2023/04/08 09:57:40;;;;;;;21.80;11.77;;;;;;;5.47;100.00;102179.97;5003996;28;20037;-71
2023/04/08 10:00:08;;;;;;;24.00;12.13;;;;;;;5.60;100.00;102174.78;4980553;28;20080;-70
2023/04/08 10:02:59;;;;;;;21.88;11.15;;;;;;;5.78;100.00;102165.66;5005414;28;20034;-73
2023/04/08 10:05:26;;;;;;;20.38;11.88;;;;;;;5.87;100.00;102151.81;5002680;28;20125;-73
2023/04/08 10:07:52;;;;;;;22.02;12.48;;;;;;;5.62;100.00;102130.47;5008074;28;20426;-73
2023/04/08 10:10:18;;;;;;;22.85;12.05;;;;;;;5.64;100.00;102136.53;5004843;28;20302;-73
2023/04/08 10:12:44;;;;;;;20.60;11.68;;;;;;;6.01;100.00;102153.63;5004928;28;20052;-72
2023/04/08 10:15:26;;;;;;;18.08;11.15;;;;;;;5.89;100.00;102123.41;5004419;28;20479;-73
2023/04/08 10:17:52;;;;;;;19.42;10.93;;;;;;;5.97;100.00;102092.94;5012597;28;20038;-72
2023/04/08 10:20:33;;;;;;;20.13;11.68;;;;;;;5.92;100.00;102082.59;4987349;28;20928;-74
2023/04/08 10:23:00;;;;;;;22.08;12.52;;;;;;;5.84;100.00;102064.56;5004329;28;20069;-72
2023/04/08 10:25:30;;;;;;;21.35;11.43;;;;;;;6.14;100.00;102082.09;4988173;28;20517;-72
2023/04/08 10:27:56;;;;;;;23.70;11.75;;;;;;;5.89;100.00;102051.84;5004420;28;20030;-72
2023/04/08 10:30:27;;;;;;;27.00;10.93;;;;;;;5.99;100.00;102049.47;5005258;28;20070;-71
2023/04/08 10:32:58;;;;;;;18.83;11.10;;;;;;;6.15;100.00;102059.09;5020691;28;20038;-74
2023/04/08 10:35:33;;;;;;;19.45;10.27;;;;;;;6.33;100.00;102061.34;4990031;28;20545;-73
2023/04/08 10:37:59;;;;;;;20.58;10.93;;;;;;;6.66;100.00;102065.34;4987526;28;20461;-74
2023/04/08 10:40:24;;;;;;;18.27;10.95;;;;;;;6.75;100.00;102042.63;5019528;28;20018;-71
2023/04/08 10:42:56;;;;;;;18.67;11.13;;;;;;;7.01;100.00;102029.34;5015508;28;20116;-72
2023/04/08 10:45:22;;;;;;;26.20;11.02;;;;;;;6.61;100.00;101958.66;5020492;28;20034;-72
2023/04/08 10:47:48;;;;;;;22.45;10.82;;;;;;;6.93;100.00;101976.75;5004182;28;20025;-75
2023/04/08 10:50:14;;;;;;;17.37;9.13;;;;;;;6.18;100.00;101887.38;5020464;28;20073;-74
2023/04/08 10:52:46;;;;;;;16.45;10.05;;;;;;;5.85;100.00;101901.94;5005506;28;20105;-71
2023/04/08 10:55:12;;;;;;;21.75;9.70;;;;;;;6.26;100.00;102001.72;5005568;28;20030;-72
2023/04/08 10:57:39;;;;;;;17.73;10.50;;;;;;;6.49;100.00;102009.94;5004114;28;20076;-71
2023/04/08 11:00:09;;;;;;;20.33;11.23;;;;;;;6.52;100.00;101991.13;5019205;28;20034;-71
2023/04/08 11:02:37;;;;;;;21.88;11.00;;;;;;;6.73;100.00;101994.94;5005330;28;20116;-71
2023/04/08 11:05:03;;;;;;;18.38;10.90;;;;;;;6.61;100.00;101952.50;5004994;28;20084;-71
2023/04/08 11:07:28;;;;;;;14.80;9.77;;;;;;;6.73;100.00;101960.44;5005324;28;20725;-73
2023/04/08 11:09:54;;;;;;;16.57;9.43;;;;;;;6.18;100.00;101897.97;4993710;28;20034;-73
2023/04/08 11:12:21;;;;;;;19.45;10.82;;;;;;;6.55;100.00;101978.53;5004999;28;20298;-73